Airfield :







YOU CAN JOIN US ON...

 
LOGIN :

Register | Disclaimer

   EN    FR    IT 

 









Legend :    VFR   Marginal VFR   IFR   Intensive IFR   Very Intensive IFR
Visi :
Ceiling :
>= 8 km
>= 3000ft
5 to 8 km
1000 to 3000 ft
1500m to 5 km
500 to 1000 ft
800 to 1500m
200 to 500 ft
< 800m
< 200 ft
Symbols :   Thunderstorms  Fog  Heavy snow  Heavy precipitations  Wind > 20 kt






- Airport Elevation : 285 ft
- IATA code : ALB


KALB - Albany International

CURRENT METAR :
  • 231351Z 26010KT 8SM -RA FEW026 BKN075 22/18 A2989 RMK AO2 RAB41 SLP118 P0001 T02170178

EXPIRED METARs :
  • 231251Z 27006KT 10SM SCT070 BKN210 OVC250 23/18 A2986 RMK AO2 LTG DSNT W SLP110 T02330178
  • 231151Z 20004KT 10SM FEW075 BKN250 23/18 A2984 RMK AO2 SLP102 60001 70001 T02280178 10233 20194 53008
  • 231051Z 15003KT 10SM FEW075 FEW180 BKN250 22/17 A2982 RMK AO2 SLP095 T02220172
  • 230951Z 00000KT 10SM SCT070 BKN130 BKN250 21/17 A2983 RMK AO2 SLP097 T02060167

TAF KALB
Valid from the 23 at 14:00 until the 24 at 12:00 UTC


231338Z 2314/2412 27007KT P6SM VCSH SCT060 BKN120 OVC200
TEMPO 2314/2315 5SM -SHRA BR BKN035
FM231500 25007KT P6SM SCT050 BKN150
FM231800 28010KT P6SM FEW050 SCT200
FM240100 25004KT P6SM SKC
KZBW FIR / North America



MET'MAP, your aeronautical weather chart ! - Copyright ORBIFLY December 2007 - Disclaimer

ORBIFLY MET'MAP TEAM :

Programming & Development : Alexandra Zaïnal
Original concept : Baudouin d'Aumeries
Technical & hardware support : Manuel Goepfert
Assistance : Marc-Olivier Méhu




SOURCES & CREDITS :

   NOAA